sensor_id;sensor_type;location;lat;lon;timestamp;pressure;altitude;pressure_sealevel;temperature;humidity
2711;BME280;20721;47.402;8.550;2023-11-21T00:00:47;95665;;;11.44;54.70
2711;BME280;20721;47.402;8.550;2023-11-21T00:02:47;95667;;;11.37;55.07
2711;BME280;20721;47.402;8.550;2023-11-21T00:04:48;95661;;;11.41;54.29
2711;BME280;20721;47.402;8.550;2023-11-21T00:06:47;95660;;;11.47;54.52
2711;BME280;20721;47.402;8.550;2023-11-21T00:08:47;95656;;;11.43;53.70
2711;BME280;20721;47.402;8.550;2023-11-21T00:10:48;95653;;;11.39;53.85
2711;BME280;20721;47.402;8.550;2023-11-21T00:12:48;95657;;;11.42;54.57
2711;BME280;20721;47.402;8.550;2023-11-21T00:14:47;95656;;;11.42;54.03
2711;BME280;20721;47.402;8.550;2023-11-21T00:16:47;95654;;;11.45;53.53
2711;BME280;20721;47.402;8.550;2023-11-21T00:18:47;95647;;;11.43;53.51
2711;BME280;20721;47.402;8.550;2023-11-21T00:20:47;95653;;;11.47;53.99
2711;BME280;20721;47.402;8.550;2023-11-21T00:22:47;95647;;;11.50;54.62
2711;BME280;20721;47.402;8.550;2023-11-21T00:24:47;95644;;;11.54;54.62
2711;BME280;20721;47.402;8.550;2023-11-21T00:26:48;95649;;;11.58;53.82
2711;BME280;20721;47.402;8.550;2023-11-21T00:29:47;95654;;;11.60;53.75
2711;BME280;20721;47.402;8.550;2023-11-21T00:31:47;95656;;;11.62;53.47
2711;BME280;20721;47.402;8.550;2023-11-21T00:33:47;95652;;;11.65;53.52
2711;BME280;20721;47.402;8.550;2023-11-21T00:36:47;95654;;;11.63;53.79
2711;BME280;20721;47.402;8.550;2023-11-21T00:38:48;95651;;;11.64;53.29
2711;BME280;20721;47.402;8.550;2023-11-21T00:40:47;95652;;;11.50;52.90
2711;BME280;20721;47.402;8.550;2023-11-21T00:42:47;95649;;;11.46;53.00
2711;BME280;20721;47.402;8.550;2023-11-21T00:44:47;95648;;;11.52;53.20
2711;BME280;20721;47.402;8.550;2023-11-21T00:46:47;95651;;;11.56;53.27
2711;BME280;20721;47.402;8.550;2023-11-21T00:48:47;95648;;;11.45;52.99
2711;BME280;20721;47.402;8.550;2023-11-21T00:50:47;95641;;;11.47;52.57
2711;BME280;20721;47.402;8.550;2023-11-21T00:52:47;95637;;;11.51;52.59
2711;BME280;20721;47.402;8.550;2023-11-21T00:54:48;95631;;;11.54;52.32
2711;BME280;20721;47.402;8.550;2023-11-21T00:56:48;95625;;;11.56;52.60
2711;BME280;20721;47.402;8.550;2023-11-21T00:58:49;95626;;;11.60;52.49
2711;BME280;20721;47.402;8.550;2023-11-21T01:01:47;95627;;;11.61;52.29
2711;BME280;20721;47.402;8.550;2023-11-21T01:03:47;95627;;;11.64;53.13
2711;BME280;20721;47.402;8.550;2023-11-21T01:05:49;95631;;;11.64;52.95
2711;BME280;20721;47.402;8.550;2023-11-21T01:07:47;95635;;;11.60;52.07
2711;BME280;20721;47.402;8.550;2023-11-21T01:09:48;95632;;;11.59;52.48
2711;BME280;20721;47.402;8.550;2023-11-21T01:12:48;95624;;;11.54;52.63
2711;BME280;20721;47.402;8.550;2023-11-21T01:14:47;95624;;;11.59;53.17
2711;BME280;20721;47.402;8.550;2023-11-21T01:17:47;95626;;;11.64;52.51
2711;BME280;20721;47.402;8.550;2023-11-21T01:21:47;95628;;;11.64;52.33
2711;BME280;20721;47.402;8.550;2023-11-21T01:23:47;95627;;;11.60;52.51
2711;BME280;20721;47.402;8.550;2023-11-21T01:26:47;95626;;;11.59;52.81
2711;BME280;20721;47.402;8.550;2023-11-21T01:28:49;95622;;;11.62;52.55
2711;BME280;20721;47.402;8.550;2023-11-21T01:30:48;95631;;;11.67;53.87
2711;BME280;20721;47.402;8.550;2023-11-21T01:32:47;95630;;;11.69;52.78
2711;BME280;20721;47.402;8.550;2023-11-21T01:35:48;95636;;;11.65;51.65
2711;BME280;20721;47.402;8.550;2023-11-21T01:39:47;95626;;;11.54;52.19
2711;BME280;20721;47.402;8.550;2023-11-21T01:41:47;95629;;;11.52;52.89
2711;BME280;20721;47.402;8.550;2023-11-21T01:43:47;95623;;;11.53;52.27
2711;BME280;20721;47.402;8.550;2023-11-21T01:45:47;95621;;;11.56;52.31
2711;BME280;20721;47.402;8.550;2023-11-21T01:47:48;95616;;;11.59;51.86
2711;BME280;20721;47.402;8.550;2023-11-21T01:49:48;95614;;;11.48;51.54
2711;BME280;20721;47.402;8.550;2023-11-21T01:51:47;95612;;;11.49;51.37
2711;BME280;20721;47.402;8.550;2023-11-21T01:53:47;95612;;;11.51;51.37
2711;BME280;20721;47.402;8.550;2023-11-21T01:55:47;95611;;;11.58;51.91
2711;BME280;20721;47.402;8.550;2023-11-21T01:57:47;95612;;;11.64;52.43
2711;BME280;20721;47.402;8.550;2023-11-21T01:59:47;95610;;;11.66;52.31
2711;BME280;20721;47.402;8.550;2023-11-21T02:01:48;95611;;;11.67;52.81
2711;BME280;20721;47.402;8.550;2023-11-21T02:04:47;95611;;;11.66;52.40
2711;BME280;20721;47.402;8.550;2023-11-21T02:06:47;95609;;;11.62;52.78
2711;BME280;20721;47.402;8.550;2023-11-21T02:08:47;95610;;;11.63;52.54
2711;BME280;20721;47.402;8.550;2023-11-21T02:11:47;95615;;;11.65;53.24
2711;BME280;20721;47.402;8.550;2023-11-21T02:13:49;95614;;;11.63;53.29
2711;BME280;20721;47.402;8.550;2023-11-21T02:15:49;95618;;;11.59;53.62
2711;BME280;20721;47.402;8.550;2023-11-21T02:17:50;95618;;;11.60;54.10
2711;BME280;20721;47.402;8.550;2023-11-21T02:19:51;95626;;;11.60;54.16
2711;BME280;20721;47.402;8.550;2023-11-21T02:21:50;95627;;;11.59;53.75
2711;BME280;20721;47.402;8.550;2023-11-21T02:24:47;95632;;;11.60;54.80
2711;BME280;20721;47.402;8.550;2023-11-21T02:26:47;95631;;;11.59;55.19
2711;BME280;20721;47.402;8.550;2023-11-21T02:28:47;95633;;;11.54;55.67
2711;BME280;20721;47.402;8.550;2023-11-21T02:30:55;95632;;;11.48;56.73
2711;BME280;20721;47.402;8.550;2023-11-21T02:32:49;95635;;;11.42;56.97
2711;BME280;20721;47.402;8.550;2023-11-21T02:34:47;95632;;;11.38;57.96
2711;BME280;20721;47.402;8.550;2023-11-21T02:36:49;95630;;;11.33;58.59
2711;BME280;20721;47.402;8.550;2023-11-21T02:38:47;95633;;;11.28;58.05
2711;BME280;20721;47.402;8.550;2023-11-21T02:40:47;95630;;;11.16;59.37
2711;BME280;20721;47.402;8.550;2023-11-21T02:42:47;95633;;;11.11;59.57
2711;BME280;20721;47.402;8.550;2023-11-21T02:44:47;95632;;;11.06;59.90
2711;BME280;20721;47.402;8.550;2023-11-21T02:46:47;95631;;;11.04;60.36
2711;BME280;20721;47.402;8.550;2023-11-21T02:48:47;95631;;;10.99;60.70
2711;BME280;20721;47.402;8.550;2023-11-21T02:51:47;95630;;;10.97;61.34
2711;BME280;20721;47.402;8.550;2023-11-21T02:53:47;95628;;;10.86;60.95
2711;BME280;20721;47.402;8.550;2023-11-21T02:55:47;95630;;;10.85;60.91
2711;BME280;20721;47.402;8.550;2023-11-21T02:57:48;95635;;;10.83;60.45
2711;BME280;20721;47.402;8.550;2023-11-21T02:59:47;95633;;;10.75;60.12
2711;BME280;20721;47.402;8.550;2023-11-21T03:01:49;95624;;;10.66;60.40
2711;BME280;20721;47.402;8.550;2023-11-21T03:03:51;95619;;;10.45;60.84
2711;BME280;20721;47.402;8.550;2023-11-21T03:05:47;95608;;;10.37;60.68
2711;BME280;20721;47.402;8.550;2023-11-21T03:08:47;95605;;;10.33;60.99
2711;BME280;20721;47.402;8.550;2023-11-21T03:10:47;95610;;;10.37;62.27
2711;BME280;20721;47.402;8.550;2023-11-21T03:13:47;95604;;;10.43;62.08
2711;BME280;20721;47.402;8.550;2023-11-21T03:15:48;95607;;;10.47;61.99
2711;BME280;20721;47.402;8.550;2023-11-21T03:17:49;95607;;;10.50;62.10
2711;BME280;20721;47.402;8.550;2023-11-21T03:19:47;95603;;;10.53;62.18
2711;BME280;20721;47.402;8.550;2023-11-21T03:21:47;95605;;;10.56;62.31
2711;BME280;20721;47.402;8.550;2023-11-21T03:24:47;95610;;;10.57;62.19
2711;BME280;20721;47.402;8.550;2023-11-21T03:26:48;95611;;;10.60;61.95
2711;BME280;20721;47.402;8.550;2023-11-21T03:28:47;95611;;;10.56;61.93
2711;BME280;20721;47.402;8.550;2023-11-21T03:30:47;95612;;;10.51;61.68
2711;BME280;20721;47.402;8.550;2023-11-21T03:32:47;95610;;;10.46;61.90
2711;BME280;20721;47.402;8.550;2023-11-21T03:34:57;95607;;;10.33;61.75
2711;BME280;20721;47.402;8.550;2023-11-21T03:36:48;95606;;;10.30;61.81
2711;BME280;20721;47.402;8.550;2023-11-21T03:38:48;95607;;;10.24;62.25
2711;BME280;20721;47.402;8.550;2023-11-21T03:40:47;95605;;;10.15;62.30
2711;BME280;20721;47.402;8.550;2023-11-21T03:42:47;95609;;;10.05;62.00
2711;BME280;20721;47.402;8.550;2023-11-21T03:44:47;95607;;;9.82;62.38
2711;BME280;20721;47.402;8.550;2023-11-21T03:46:48;95610;;;9.83;63.44
2711;BME280;20721;47.402;8.550;2023-11-21T03:48:47;95616;;;9.97;63.53
2711;BME280;20721;47.402;8.550;2023-11-21T03:50:47;95615;;;9.98;62.34
2711;BME280;20721;47.402;8.550;2023-11-21T03:52:47;95621;;;10.09;62.91
2711;BME280;20721;47.402;8.550;2023-11-21T03:54:47;95614;;;10.17;62.34
2711;BME280;20721;47.402;8.550;2023-11-21T03:56:47;95616;;;10.23;62.64
2711;BME280;20721;47.402;8.550;2023-11-21T03:58:48;95616;;;10.12;62.08
2711;BME280;20721;47.402;8.550;2023-11-21T04:00:49;95622;;;9.97;61.73
2711;BME280;20721;47.402;8.550;2023-11-21T04:02:48;95624;;;9.78;62.54
2711;BME280;20721;47.402;8.550;2023-11-21T04:04:48;95623;;;9.79;62.39
2711;BME280;20721;47.402;8.550;2023-11-21T04:06:47;95625;;;9.66;62.61
2711;BME280;20721;47.402;8.550;2023-11-21T04:08:47;95629;;;9.38;63.24
2711;BME280;20721;47.402;8.550;2023-11-21T04:10:48;95627;;;9.37;63.80
2711;BME280;20721;47.402;8.550;2023-11-21T04:12:48;95624;;;9.44;63.57
2711;BME280;20721;47.402;8.550;2023-11-21T04:14:47;95619;;;9.60;63.92
2711;BME280;20721;47.402;8.550;2023-11-21T04:16:48;95628;;;9.70;63.27
2711;BME280;20721;47.402;8.550;2023-11-21T04:19:47;95620;;;9.62;63.49
2711;BME280;20721;47.402;8.550;2023-11-21T04:21:47;95618;;;9.59;63.53
2711;BME280;20721;47.402;8.550;2023-11-21T04:23:48;95613;;;9.62;63.42
2711;BME280;20721;47.402;8.550;2023-11-21T04:25:48;95613;;;9.46;63.68
2711;BME280;20721;47.402;8.550;2023-11-21T04:27:48;95616;;;9.45;64.21
2711;BME280;20721;47.402;8.550;2023-11-21T04:29:47;95615;;;9.23;63.56
2711;BME280;20721;47.402;8.550;2023-11-21T04:31:49;95614;;;9.22;63.96
2711;BME280;20721;47.402;8.550;2023-11-21T04:33:48;95618;;;9.10;65.18
2711;BME280;20721;47.402;8.550;2023-11-21T04:35:48;95619;;;9.26;64.68
2711;BME280;20721;47.402;8.550;2023-11-21T04:37:48;95624;;;9.47;64.21
2711;BME280;20721;47.402;8.550;2023-11-21T04:39:48;95625;;;9.64;64.14
2711;BME280;20721;47.402;8.550;2023-11-21T04:41:48;95632;;;9.64;64.10
2711;BME280;20721;47.402;8.550;2023-11-21T04:43:48;95634;;;9.60;63.75
2711;BME280;20721;47.402;8.550;2023-11-21T04:45:48;95633;;;9.61;63.85
2711;BME280;20721;47.402;8.550;2023-11-21T04:47:48;95629;;;9.44;63.81
2711;BME280;20721;47.402;8.550;2023-11-21T04:49:48;95637;;;9.49;64.00
2711;BME280;20721;47.402;8.550;2023-11-21T04:51:48;95633;;;9.63;64.50
2711;BME280;20721;47.402;8.550;2023-11-21T04:53:48;95635;;;9.64;63.54
2711;BME280;20721;47.402;8.550;2023-11-21T04:55:48;95633;;;9.56;63.71
2711;BME280;20721;47.402;8.550;2023-11-21T04:57:48;95628;;;9.64;64.22
2711;BME280;20721;47.402;8.550;2023-11-21T04:59:49;95633;;;9.60;63.28
2711;BME280;20721;47.402;8.550;2023-11-21T05:01:48;95628;;;9.58;63.59
2711;BME280;20721;47.402;8.550;2023-11-21T05:03:48;95621;;;9.37;64.21
2711;BME280;20721;47.402;8.550;2023-11-21T05:05:48;95622;;;9.30;64.72
2711;BME280;20721;47.402;8.550;2023-11-21T05:07:49;95626;;;9.29;64.71
2711;BME280;20721;47.402;8.550;2023-11-21T05:09:48;95627;;;9.33;64.31
2711;BME280;20721;47.402;8.550;2023-11-21T05:11:48;95632;;;9.38;64.82
2711;BME280;20721;47.402;8.550;2023-11-21T05:13:48;95636;;;9.48;64.57
2711;BME280;20721;47.402;8.550;2023-11-21T05:15:48;95633;;;9.51;64.08
2711;BME280;20721;47.402;8.550;2023-11-21T05:17:49;95634;;;9.59;64.28
2711;BME280;20721;47.402;8.550;2023-11-21T05:19:50;95637;;;9.69;64.42
2711;BME280;20721;47.402;8.550;2023-11-21T05:21:48;95636;;;9.65;63.90
2711;BME280;20721;47.402;8.550;2023-11-21T05:23:48;95631;;;9.68;63.97
2711;BME280;20721;47.402;8.550;2023-11-21T05:25:48;95631;;;9.37;63.97
2711;BME280;20721;47.402;8.550;2023-11-21T05:27:48;95630;;;9.26;64.64
2711;BME280;20721;47.402;8.550;2023-11-21T05:29:48;95633;;;9.24;64.70
2711;BME280;20721;47.402;8.550;2023-11-21T05:31:48;95637;;;9.00;64.63
2711;BME280;20721;47.402;8.550;2023-11-21T05:33:48;95644;;;9.03;64.92
2711;BME280;20721;47.402;8.550;2023-11-21T05:35:48;95644;;;9.06;64.22
2711;BME280;20721;47.402;8.550;2023-11-21T05:37:48;95647;;;9.17;64.76
2711;BME280;20721;47.402;8.550;2023-11-21T05:39:48;95650;;;9.31;64.35
2711;BME280;20721;47.402;8.550;2023-11-21T05:41:50;95651;;;9.48;63.78
2711;BME280;20721;47.402;8.550;2023-11-21T05:43:48;95650;;;9.72;63.51
2711;BME280;20721;47.402;8.550;2023-11-21T05:45:48;95654;;;9.76;63.30
2711;BME280;20721;47.402;8.550;2023-11-21T05:47:48;95650;;;9.95;62.75
2711;BME280;20721;47.402;8.550;2023-11-21T05:49:50;95654;;;10.01;62.77
2711;BME280;20721;47.402;8.550;2023-11-21T05:51:48;95656;;;9.92;61.86
2711;BME280;20721;47.402;8.550;2023-11-21T05:53:48;95655;;;9.83;62.01
2711;BME280;20721;47.402;8.550;2023-11-21T05:55:48;95649;;;9.78;62.01
2711;BME280;20721;47.402;8.550;2023-11-21T05:57:48;95651;;;9.78;62.30
2711;BME280;20721;47.402;8.550;2023-11-21T05:59:48;95663;;;9.73;62.87
2711;BME280;20721;47.402;8.550;2023-11-21T06:01:48;95665;;;9.41;62.13
2711;BME280;20721;47.402;8.550;2023-11-21T06:03:48;95668;;;9.27;63.78
2711;BME280;20721;47.402;8.550;2023-11-21T06:05:48;95673;;;9.44;63.93
2711;BME280;20721;47.402;8.550;2023-11-21T06:07:48;95674;;;9.49;63.42
2711;BME280;20721;47.402;8.550;2023-11-21T06:09:50;95670;;;9.59;62.90
2711;BME280;20721;47.402;8.550;2023-11-21T06:11:48;95670;;;9.64;62.89
2711;BME280;20721;47.402;8.550;2023-11-21T06:13:49;95668;;;9.70;63.10
2711;BME280;20721;47.402;8.550;2023-11-21T06:15:48;95671;;;9.79;62.98
2711;BME280;20721;47.402;8.550;2023-11-21T06:17:52;95674;;;9.79;62.56
2711;BME280;20721;47.402;8.550;2023-11-21T06:19:48;95677;;;9.87;62.70
2711;BME280;20721;47.402;8.550;2023-11-21T06:21:48;95674;;;9.95;62.72
2711;BME280;20721;47.402;8.550;2023-11-21T06:23:52;95678;;;9.95;63.21
2711;BME280;20721;47.402;8.550;2023-11-21T06:25:48;95684;;;9.96;62.86
2711;BME280;20721;47.402;8.550;2023-11-21T06:28:51;95687;;;9.98;62.51
2711;BME280;20721;47.402;8.550;2023-11-21T06:30:49;95685;;;10.03;63.00
2711;BME280;20721;47.402;8.550;2023-11-21T06:32:50;95683;;;10.08;63.38
2711;BME280;20721;47.402;8.550;2023-11-21T06:34:49;95684;;;10.02;63.67
2711;BME280;20721;47.402;8.550;2023-11-21T06:36:48;95682;;;10.02;63.89
2711;BME280;20721;47.402;8.550;2023-11-21T06:38:48;95684;;;9.98;62.97
2711;BME280;20721;47.402;8.550;2023-11-21T06:40:48;95686;;;10.00;63.64
2711;BME280;20721;47.402;8.550;2023-11-21T06:42:48;95687;;;9.78;63.85
2711;BME280;20721;47.402;8.550;2023-11-21T06:44:48;95687;;;9.60;64.20
2711;BME280;20721;47.402;8.550;2023-11-21T06:46:48;95686;;;9.55;64.80
2711;BME280;20721;47.402;8.550;2023-11-21T06:48:49;95690;;;9.67;65.14
2711;BME280;20721;47.402;8.550;2023-11-21T06:50:48;95694;;;9.77;64.94
2711;BME280;20721;47.402;8.550;2023-11-21T06:52:48;95696;;;9.86;64.52
2711;BME280;20721;47.402;8.550;2023-11-21T06:54:49;95694;;;9.89;64.33
2711;BME280;20721;47.402;8.550;2023-11-21T06:56:48;95690;;;9.91;64.39
2711;BME280;20721;47.402;8.550;2023-11-21T06:58:49;95697;;;9.99;64.40
2711;BME280;20721;47.402;8.550;2023-11-21T07:00:50;95695;;;10.06;64.56
2711;BME280;20721;47.402;8.550;2023-11-21T07:03:48;95707;;;10.01;63.57
2711;BME280;20721;47.402;8.550;2023-11-21T07:05:48;95709;;;9.95;63.84
2711;BME280;20721;47.402;8.550;2023-11-21T07:07:48;95706;;;9.96;64.05
2711;BME280;20721;47.402;8.550;2023-11-21T07:09:49;95702;;;9.96;64.22
2711;BME280;20721;47.402;8.550;2023-11-21T07:11:48;95704;;;10.03;64.55
2711;BME280;20721;47.402;8.550;2023-11-21T07:13:48;95704;;;9.97;63.69
2711;BME280;20721;47.402;8.550;2023-11-21T07:15:48;95699;;;9.86;64.39
2711;BME280;20721;47.402;8.550;2023-11-21T07:17:48;95698;;;9.88;64.38
2711;BME280;20721;47.402;8.550;2023-11-21T07:20:48;95709;;;9.94;63.97
2711;BME280;20721;47.402;8.550;2023-11-21T07:23:48;95706;;;9.89;63.95
2711;BME280;20721;47.402;8.550;2023-11-21T07:25:48;95710;;;9.96;63.85
2711;BME280;20721;47.402;8.550;2023-11-21T07:27:48;95714;;;10.02;63.57
2711;BME280;20721;47.402;8.550;2023-11-21T07:29:48;95713;;;9.89;63.85
2711;BME280;20721;47.402;8.550;2023-11-21T07:31:48;95712;;;9.90;64.66
2711;BME280;20721;47.402;8.550;2023-11-21T07:33:48;95713;;;9.92;64.54
2711;BME280;20721;47.402;8.550;2023-11-21T07:35:48;95718;;;9.84;63.95
2711;BME280;20721;47.402;8.550;2023-11-21T07:37:48;95717;;;9.88;64.53
2711;BME280;20721;47.402;8.550;2023-11-21T07:39:48;95724;;;9.94;64.60
2711;BME280;20721;47.402;8.550;2023-11-21T07:41:48;95722;;;9.99;64.25
2711;BME280;20721;47.402;8.550;2023-11-21T07:43:48;95724;;;9.97;64.19
2711;BME280;20721;47.402;8.550;2023-11-21T07:45:48;95720;;;10.07;64.41
2711;BME280;20721;47.402;8.550;2023-11-21T07:47:48;95716;;;10.26;64.19
2711;BME280;20721;47.402;8.550;2023-11-21T07:49:48;95719;;;10.41;64.10
2711;BME280;20721;47.402;8.550;2023-11-21T07:51:48;95716;;;10.55;63.26
2711;BME280;20721;47.402;8.550;2023-11-21T07:53:48;95716;;;10.68;63.02
2711;BME280;20721;47.402;8.550;2023-11-21T07:55:48;95721;;;10.73;62.14
2711;BME280;20721;47.402;8.550;2023-11-21T07:57:48;95721;;;10.65;62.65
2711;BME280;20721;47.402;8.550;2023-11-21T07:59:48;95721;;;10.65;62.55
2711;BME280;20721;47.402;8.550;2023-11-21T08:01:48;95725;;;10.70;62.64
2711;BME280;20721;47.402;8.550;2023-11-21T08:03:51;95723;;;10.75;62.27
2711;BME280;20721;47.402;8.550;2023-11-21T08:05:48;95721;;;10.79;61.87
2711;BME280;20721;47.402;8.550;2023-11-21T08:08:48;95724;;;10.78;62.01
2711;BME280;20721;47.402;8.550;2023-11-21T08:10:56;95727;;;10.79;62.01
2711;BME280;20721;47.402;8.550;2023-11-21T08:12:50;95721;;;10.79;62.27
2711;BME280;20721;47.402;8.550;2023-11-21T08:14:48;95727;;;10.75;62.35
2711;BME280;20721;47.402;8.550;2023-11-21T08:18:48;95728;;;10.62;61.57
2711;BME280;20721;47.402;8.550;2023-11-21T08:20:48;95728;;;10.45;62.24
2711;BME280;20721;47.402;8.550;2023-11-21T08:22:48;95730;;;10.28;63.28
2711;BME280;20721;47.402;8.550;2023-11-21T08:24:48;95733;;;10.25;63.57
2711;BME280;20721;47.402;8.550;2023-11-21T08:26:49;95736;;;10.32;64.17
2711;BME280;20721;47.402;8.550;2023-11-21T08:28:48;95733;;;10.37;64.23
2711;BME280;20721;47.402;8.550;2023-11-21T08:30:48;95730;;;10.44;64.13
2711;BME280;20721;47.402;8.550;2023-11-21T08:32:48;95728;;;10.40;64.51
2711;BME280;20721;47.402;8.550;2023-11-21T08:34:52;95727;;;10.39;64.58
2711;BME280;20721;47.402;8.550;2023-11-21T08:36:48;95729;;;10.17;64.52
2711;BME280;20721;47.402;8.550;2023-11-21T08:38:48;95733;;;9.89;65.05
2711;BME280;20721;47.402;8.550;2023-11-21T08:40:48;95738;;;9.90;65.73
2711;BME280;20721;47.402;8.550;2023-11-21T08:42:48;95742;;;10.13;66.30
2711;BME280;20721;47.402;8.550;2023-11-21T08:44:48;95746;;;10.31;65.40
2711;BME280;20721;47.402;8.550;2023-11-21T08:46:49;95742;;;10.40;65.05
2711;BME280;20721;47.402;8.550;2023-11-21T08:48:48;95739;;;10.46;64.70
2711;BME280;20721;47.402;8.550;2023-11-21T08:52:48;95740;;;10.45;64.39
2711;BME280;20721;47.402;8.550;2023-11-21T08:54:49;95740;;;10.09;64.41
2711;BME280;20721;47.402;8.550;2023-11-21T08:56:50;95741;;;9.84;65.76
2711;BME280;20721;47.402;8.550;2023-11-21T08:58:50;95740;;;9.65;66.04
2711;BME280;20721;47.402;8.550;2023-11-21T09:00:48;95739;;;9.42;66.48
2711;BME280;20721;47.402;8.550;2023-11-21T09:02:48;95735;;;9.48;67.75
2711;BME280;20721;47.402;8.550;2023-11-21T09:04:49;95738;;;9.82;66.93
2711;BME280;20721;47.402;8.550;2023-11-21T09:06:48;95741;;;10.02;65.10
2711;BME280;20721;47.402;8.550;2023-11-21T09:08:48;95740;;;10.22;65.46
2711;BME280;20721;47.402;8.550;2023-11-21T09:10:48;95744;;;10.08;64.73
2711;BME280;20721;47.402;8.550;2023-11-21T09:12:48;95744;;;10.18;65.10
2711;BME280;20721;47.402;8.550;2023-11-21T09:16:50;95752;;;10.23;65.38
2711;BME280;20721;47.402;8.550;2023-11-21T09:18:48;95752;;;10.46;65.01
2711;BME280;20721;47.402;8.550;2023-11-21T09:20:48;95758;;;10.63;64.52
2711;BME280;20721;47.402;8.550;2023-11-21T09:22:48;95760;;;10.74;63.46
2711;BME280;20721;47.402;8.550;2023-11-21T09:24:48;95765;;;10.71;63.09
2711;BME280;20721;47.402;8.550;2023-11-21T09:26:49;95765;;;10.67;63.05
2711;BME280;20721;47.402;8.550;2023-11-21T09:28:48;95759;;;10.71;62.57
2711;BME280;20721;47.402;8.550;2023-11-21T09:30:50;95765;;;10.58;62.68
2711;BME280;20721;47.402;8.550;2023-11-21T09:32:48;95763;;;10.62;63.07
2711;BME280;20721;47.402;8.550;2023-11-21T09:34:49;95768;;;10.55;63.10
2711;BME280;20721;47.402;8.550;2023-11-21T09:36:48;95767;;;10.54;63.13
2711;BME280;20721;47.402;8.550;2023-11-21T09:38:49;95773;;;10.50;63.43
2711;BME280;20721;47.402;8.550;2023-11-21T09:40:49;95773;;;10.60;63.73
2711;BME280;20721;47.402;8.550;2023-11-21T09:42:50;95774;;;10.64;63.24
2711;BME280;20721;47.402;8.550;2023-11-21T09:44:54;95774;;;10.65;63.85
2711;BME280;20721;47.402;8.550;2023-11-21T09:46:49;95778;;;10.44;63.99
2711;BME280;20721;47.402;8.550;2023-11-21T09:48:50;95774;;;10.23;64.58
2711;BME280;20721;47.402;8.550;2023-11-21T09:50:52;95778;;;10.27;64.82
2711;BME280;20721;47.402;8.550;2023-11-21T09:53:49;95779;;;10.04;65.49
2711;BME280;20721;47.402;8.550;2023-11-21T09:55:51;95776;;;9.89;66.40
2711;BME280;20721;47.402;8.550;2023-11-21T09:57:49;95780;;;9.93;67.36
2711;BME280;20721;47.402;8.550;2023-11-21T09:59:51;95782;;;10.11;66.68
2711;BME280;20721;47.402;8.550;2023-11-21T10:01:50;95782;;;10.14;66.68
2711;BME280;20721;47.402;8.550;2023-11-21T10:03:48;95781;;;10.20;67.02
2711;BME280;20721;47.402;8.550;2023-11-21T10:05:50;95780;;;10.08;66.86
2711;BME280;20721;47.402;8.550;2023-11-21T10:07:50;95780;;;10.21;67.21
2711;BME280;20721;47.402;8.550;2023-11-21T10:09:48;95782;;;10.34;66.96
2711;BME280;20721;47.402;8.550;2023-11-21T10:11:49;95781;;;10.43;65.79
2711;BME280;20721;47.402;8.550;2023-11-21T10:13:48;95776;;;10.50;66.45
2711;BME280;20721;47.402;8.550;2023-11-21T10:15:50;95773;;;10.66;65.77
2711;BME280;20721;47.402;8.550;2023-11-21T10:17:49;95772;;;10.82;65.23
2711;BME280;20721;47.402;8.550;2023-11-21T10:19:48;95773;;;10.97;65.28
2711;BME280;20721;47.402;8.550;2023-11-21T10:21:48;95772;;;11.12;64.86
2711;BME280;20721;47.402;8.550;2023-11-21T10:23:48;95773;;;11.26;64.62
2711;BME280;20721;47.402;8.550;2023-11-21T10:25:51;95772;;;11.34;64.25
2711;BME280;20721;47.402;8.550;2023-11-21T10:27:54;95767;;;11.38;64.17
2711;BME280;20721;47.402;8.550;2023-11-21T10:29:51;95763;;;11.40;64.49
2711;BME280;20721;47.402;8.550;2023-11-21T10:31:50;95765;;;11.45;63.91
2711;BME280;20721;47.402;8.550;2023-11-21T10:33:48;95762;;;11.42;63.01
2711;BME280;20721;47.402;8.550;2023-11-21T10:35:54;95764;;;11.42;63.10
2711;BME280;20721;47.402;8.550;2023-11-21T10:37:48;95764;;;11.46;62.68
2711;BME280;20721;47.402;8.550;2023-11-21T10:39:48;95764;;;11.49;63.23
2711;BME280;20721;47.402;8.550;2023-11-21T10:41:49;95766;;;11.53;62.86
2711;BME280;20721;47.402;8.550;2023-11-21T10:43:48;95764;;;11.57;63.16
2711;BME280;20721;47.402;8.550;2023-11-21T10:45:49;95763;;;11.52;62.38
2711;BME280;20721;47.402;8.550;2023-11-21T10:47:49;95765;;;11.50;62.04
2711;BME280;20721;47.402;8.550;2023-11-21T10:49:49;95764;;;11.48;62.24
2711;BME280;20721;47.402;8.550;2023-11-21T10:51:48;95765;;;11.44;62.41
2711;BME280;20721;47.402;8.550;2023-11-21T10:53:52;95767;;;11.45;62.58
2711;BME280;20721;47.402;8.550;2023-11-21T10:55:49;95763;;;11.44;62.91
2711;BME280;20721;47.402;8.550;2023-11-21T10:57:49;95761;;;11.39;61.99
2711;BME280;20721;47.402;8.550;2023-11-21T10:59:49;95764;;;11.45;62.22
2711;BME280;20721;47.402;8.550;2023-11-21T11:01:49;95763;;;11.52;61.61
2711;BME280;20721;47.402;8.550;2023-11-21T11:03:49;95763;;;11.54;61.63
2711;BME280;20721;47.402;8.550;2023-11-21T11:06:51;95765;;;11.58;61.83
2711;BME280;20721;47.402;8.550;2023-11-21T11:08:49;95762;;;11.63;61.70
2711;BME280;20721;47.402;8.550;2023-11-21T11:11:49;95762;;;11.64;61.54
2711;BME280;20721;47.402;8.550;2023-11-21T11:13:49;95758;;;11.56;61.61
2711;BME280;20721;47.402;8.550;2023-11-21T11:15:49;95755;;;11.57;61.64
2711;BME280;20721;47.402;8.550;2023-11-21T11:17:49;95755;;;11.56;61.19
2711;BME280;20721;47.402;8.550;2023-11-21T11:19:49;95759;;;11.44;61.82
2711;BME280;20721;47.402;8.550;2023-11-21T11:28:05;95753;;;11.92;61.32
2711;BME280;20721;47.402;8.550;2023-11-21T11:30:08;95754;;;11.96;60.36
2711;BME280;20721;47.402;8.550;2023-11-21T11:31:53;95754;;;12.06;60.93
2711;BME280;20721;47.402;8.550;2023-11-21T11:33:52;95748;;;12.05;60.30
2711;BME280;20721;47.402;8.550;2023-11-21T11:35:52;95751;;;11.83;60.34
2711;BME280;20721;47.402;8.550;2023-11-21T11:37:49;95753;;;11.57;61.68
2711;BME280;20721;47.402;8.550;2023-11-21T11:39:49;95752;;;11.49;62.53
2711;BME280;20721;47.402;8.550;2023-11-21T11:41:50;95745;;;11.75;61.26
2711;BME280;20721;47.402;8.550;2023-11-21T11:43:49;95746;;;12.04;61.29
2711;BME280;20721;47.402;8.550;2023-11-21T11:45:51;95747;;;12.21;60.68
2711;BME280;20721;47.402;8.550;2023-11-21T11:47:49;95749;;;12.29;58.60
2711;BME280;20721;47.402;8.550;2023-11-21T11:51:05;95747;;;12.28;59.40
2711;BME280;20721;47.402;8.550;2023-11-21T11:52:50;95747;;;12.35;59.82
2711;BME280;20721;47.402;8.550;2023-11-21T11:54:49;95751;;;12.46;59.02